Time;durP1;ratioP1;P1;durP2;ratioP2;P2;SDS_P1;SDS_P2;PMS_P1;PMS_P2;Temp;Humidity;BMP_temperature;BMP_pressure;BME280_temperature;BME280_humidity;BME280_pressure;Samples;Min_cycle;Max_cycle;Signal;HPM_P1;HPM_P2
2022/10/08 00:02:22;;;;;;;;;;;;;;;;;;4885845;29;19923;-92
2022/10/08 00:04:47;;;;;;;;;;;;;;;;;;4880309;29;19927;-92
2022/10/08 00:07:13;;;;;;;;;;;;;;;;;;4877872;29;19916;-94
2022/10/08 00:09:38;;;;;;;;;;;;;;;;;;4874440;29;20386;-94
2022/10/08 00:12:04;;;;;;;;;;;;;;;;;;4892321;29;19922;-92
2022/10/08 00:14:29;;;;;;;;;;;;;;;;;;4889919;29;20003;-92
2022/10/08 00:16:54;;;;;;;;;;;;;;;;;;4871628;29;19915;-92
2022/10/08 00:19:20;;;;;;;;;;;;;;;;;;4870736;29;19912;-93
2022/10/08 00:21:45;;;;;;;;;;;;;;;;;;4884099;29;20006;-93
2022/10/08 00:24:11;;;;;;;;;;;;;;;;;;4876819;29;19916;-92
2022/10/08 00:26:37;;;;;;;;;;;;;;;;;;4887616;29;19998;-93
2022/10/08 00:29:02;;;;;;;;;;;;;;;;;;4876851;29;20434;-88
2022/10/08 00:31:28;;;;;;;;;;;;;;;;;;4877899;29;19923;-93
2022/10/08 00:33:55;;;;;;;;;;;;;;;;;;4881534;29;20299;-92
2022/10/08 00:36:20;;;;;;;;;;;;;;;;;;4904367;29;19923;-77
2022/10/08 00:38:45;;;;;;;;;;;;;;;;;;4894576;29;20324;-79
2022/10/08 00:41:11;;;;;;;;;;;;;;;;;;4884996;29;20397;-77
2022/10/08 00:43:36;;;;;;;;;;;;;;;;;;4891257;29;19986;-78
2022/10/08 00:46:02;;;;;;;;;;;;;;;;;;4887160;29;19916;-78
2022/10/08 00:48:27;;;;;;;;;;;;;;;;;;4884365;29;19955;-78
2022/10/08 00:50:53;;;;;;;;;;;;;;;;;;4895836;29;20192;-89
2022/10/08 00:53:20;;;;;;;;;;;;;;;;;;4878364;29;20306;-91
2022/10/08 00:55:45;;;;;;;;;;;;;;;;;;4878301;29;19915;-91
2022/10/08 00:58:10;;;;;;;;;;;;;;;;;;4889145;29;20268;-87
2022/10/08 01:00:36;;;;;;;;;;;;;;;;;;4906565;29;20295;-90
2022/10/08 01:03:02;;;;;;;;;;;;;;;;;;4904340;29;19922;-92
2022/10/08 01:05:29;;;;;;;;;;;;;;;;;;4904329;29;20434;-92
2022/10/08 01:07:54;;;;;;;;;;;;;;;;;;4888966;29;19946;-94
2022/10/08 01:10:19;;;;;;;;;;;;;;;;;;4889145;29;20253;-77
2022/10/08 01:12:49;;;;;;;;;;;;;;;;;;4898579;29;19920;-82
2022/10/08 01:15:14;;;;;;;;;;;;;;;;;;4898907;29;19954;-83
2022/10/08 01:17:39;;;;;;;;;;;;;;;;;;4883604;29;20273;-83
2022/10/08 01:20:05;;;;;;;;;;;;;;;;;;4883106;29;20406;-83
2022/10/08 01:22:30;;;;;;;;;;;;;;;;;;4899897;29;20002;-83
2022/10/08 01:27:40;;;;;;;;;;;;;;;;;;4900100;29;20427;-83
2022/10/08 01:30:05;;;;;;;;;;;;;;;;;;4883276;29;19920;-82
2022/10/08 01:32:30;;;;;;;;;;;;;;;;;;4882039;29;19915;-85
2022/10/08 01:34:56;;;;;;;;;;;;;;;;;;4898572;29;20391;-85
2022/10/08 01:37:21;;;;;;;;;;;;;;;;;;4899683;29;20296;-85
2022/10/08 01:39:47;;;;;;;;;;;;;;;;;;4899641;29;19912;-84
2022/10/08 01:42:12;;;;;;;;;;;;;;;;;;4899744;29;20320;-83
2022/10/08 01:44:38;;;;;;;;;;;;;;;;;;4897692;29;19975;-85
2022/10/08 01:47:04;;;;;;;;;;;;;;;;;;4898836;29;19924;-86
2022/10/08 01:49:29;;;;;;;;;;;;;;;;;;4899850;29;20375;-86
2022/10/08 01:51:55;;;;;;;;;;;;;;;;;;4898472;29;19926;-86
2022/10/08 01:54:20;;;;;;;;;;;;;;;;;;4899438;29;20016;-87
2022/10/08 01:56:46;;;;;;;;;;;;;;;;;;4899671;29;20367;-86
2022/10/08 01:59:11;;;;;;;;;;;;;;;;;;4898945;29;20284;-86
2022/10/08 02:01:39;;;;;;;;;;;;;;;;;;4898940;29;20434;-86
2022/10/08 02:06:49;;;;;;;;;;;;;;;;;;4898871;29;19926;-86
2022/10/08 02:09:14;;;;;;;;;;;;;;;;;;4906125;29;20277;-87
2022/10/08 02:11:40;;;;;;;;;;;;;;;;;;4910336;29;19954;-86
2022/10/08 02:14:05;;;;;;;;;;;;;;;;;;4897593;29;19916;-86
2022/10/08 02:16:31;;;;;;;;;;;;;;;;;;4898264;29;19915;-86
2022/10/08 02:18:57;;;;;;;;;;;;;;;;;;4897429;29;19912;-86
2022/10/08 02:21:23;;;;;;;;;;;;;;;;;;4881596;29;20264;-87
2022/10/08 02:23:48;;;;;;;;;;;;;;;;;;4898667;29;19927;-86
2022/10/08 02:26:14;;;;;;;;;;;;;;;;;;4898857;29;20299;-88
2022/10/08 02:28:39;;;;;;;;;;;;;;;;;;4898528;29;19915;-88
2022/10/08 02:31:04;;;;;;;;;;;;;;;;;;4898568;29;20343;-84
2022/10/08 02:33:30;;;;;;;;;;;;;;;;;;4896824;29;19923;-86
2022/10/08 02:35:55;;;;;;;;;;;;;;;;;;4897901;29;19915;-84
2022/10/08 02:38:21;;;;;;;;;;;;;;;;;;4881200;29;19915;-89
2022/10/08 02:40:46;;;;;;;;;;;;;;;;;;4898227;29;20002;-86
2022/10/08 02:43:11;;;;;;;;;;;;;;;;;;4881207;29;19916;-86
2022/10/08 02:45:37;;;;;;;;;;;;;;;;;;4898262;29;19923;-84
2022/10/08 02:48:03;;;;;;;;;;;;;;;;;;4898118;29;19963;-81
2022/10/08 02:50:28;;;;;;;;;;;;;;;;;;4881088;29;19927;-83
2022/10/08 02:52:53;;;;;;;;;;;;;;;;;;4896909;29;19916;-81
2022/10/08 02:55:19;;;;;;;;;;;;;;;;;;4896424;29;19923;-81
2022/10/08 02:57:44;;;;;;;;;;;;;;;;;;4896865;29;19947;-83
2022/10/08 03:00:10;;;;;;;;;;;;;;;;;;4897877;29;19939;-84
2022/10/08 03:02:35;;;;;;;;;;;;;;;;;;4896281;29;19944;-84
2022/10/08 03:05:01;;;;;;;;;;;;;;;;;;4896760;29;19919;-83
2022/10/08 03:07:26;;;;;;;;;;;;;;;;;;4883195;29;19948;-82
2022/10/08 03:09:51;;;;;;;;;;;;;;;;;;4899748;29;19915;-82
2022/10/08 03:12:17;;;;;;;;;;;;;;;;;;4907410;29;19915;-82
2022/10/08 03:14:42;;;;;;;;;;;;;;;;;;4907087;29;19923;-81
2022/10/08 03:17:08;;;;;;;;;;;;;;;;;;4899731;29;20356;-83
2022/10/08 03:19:33;;;;;;;;;;;;;;;;;;4901510;29;19916;-83
2022/10/08 03:21:58;;;;;;;;;;;;;;;;;;4898309;29;20027;-81
2022/10/08 03:24:24;;;;;;;;;;;;;;;;;;4902096;29;19922;-82
2022/10/08 03:26:49;;;;;;;;;;;;;;;;;;4901145;29;19950;-84
2022/10/08 03:29:14;;;;;;;;;;;;;;;;;;4897413;29;19922;-84
2022/10/08 03:31:40;;;;;;;;;;;;;;;;;;4896495;29;19920;-84
2022/10/08 03:34:05;;;;;;;;;;;;;;;;;;4896411;29;19938;-84
2022/10/08 03:36:31;;;;;;;;;;;;;;;;;;4896104;29;19926;-85
2022/10/08 03:38:56;;;;;;;;;;;;;;;;;;4896222;29;19962;-84
2022/10/08 03:41:21;;;;;;;;;;;;;;;;;;4897474;29;19922;-85
2022/10/08 03:43:47;;;;;;;;;;;;;;;;;;4897252;29;20299;-85
2022/10/08 03:46:12;;;;;;;;;;;;;;;;;;4897449;29;19915;-86
2022/10/08 03:48:37;;;;;;;;;;;;;;;;;;4897555;29;19919;-86
2022/10/08 03:51:03;;;;;;;;;;;;;;;;;;4894956;29;20347;-83
2022/10/08 03:53:28;;;;;;;;;;;;;;;;;;4895699;29;20006;-86
2022/10/08 03:55:54;;;;;;;;;;;;;;;;;;4897629;29;19950;-86
2022/10/08 03:58:19;;;;;;;;;;;;;;;;;;4897224;29;19919;-85
2022/10/08 04:00:44;;;;;;;;;;;;;;;;;;4897252;29;20023;-85
2022/10/08 04:03:10;;;;;;;;;;;;;;;;;;4895785;29;20272;-82
2022/10/08 04:05:35;;;;;;;;;;;;;;;;;;4896434;29;19930;-83
2022/10/08 04:08:01;;;;;;;;;;;;;;;;;;4896951;29;20010;-84
2022/10/08 04:10:26;;;;;;;;;;;;;;;;;;4897556;29;19923;-84
2022/10/08 04:12:51;;;;;;;;;;;;;;;;;;4901542;29;20331;-83
2022/10/08 04:15:17;;;;;;;;;;;;;;;;;;4905335;29;19938;-84
2022/10/08 04:17:42;;;;;;;;;;;;;;;;;;4899510;29;19916;-84
2022/10/08 04:20:07;;;;;;;;;;;;;;;;;;4896009;29;20351;-85
2022/10/08 04:22:33;;;;;;;;;;;;;;;;;;4894738;29;19922;-83
2022/10/08 04:24:58;;;;;;;;;;;;;;;;;;4897280;29;19915;-84
2022/10/08 04:27:23;;;;;;;;;;;;;;;;;;4895796;29;20002;-84
2022/10/08 04:29:49;;;;;;;;;;;;;;;;;;4896279;29;20179;-86
2022/10/08 04:32:14;;;;;;;;;;;;;;;;;;4896909;29;19921;-81
2022/10/08 04:34:40;;;;;;;;;;;;;;;;;;4895504;29;19998;-81
2022/10/08 04:37:05;;;;;;;;;;;;;;;;;;4895765;29;19976;-81
2022/10/08 04:39:30;;;;;;;;;;;;;;;;;;4897475;29;19944;-82
2022/10/08 04:41:56;;;;;;;;;;;;;;;;;;4900273;29;19922;-84
2022/10/08 04:44:21;;;;;;;;;;;;;;;;;;4899006;29;19938;-84
2022/10/08 04:46:46;;;;;;;;;;;;;;;;;;4883663;29;19919;-86
2022/10/08 04:49:12;;;;;;;;;;;;;;;;;;4900300;29;19915;-85
2022/10/08 04:51:37;;;;;;;;;;;;;;;;;;4900244;29;19923;-87
2022/10/08 04:54:03;;;;;;;;;;;;;;;;;;4899960;29;19916;-86
2022/10/08 04:56:28;;;;;;;;;;;;;;;;;;4898198;29;20009;-87
2022/10/08 04:58:54;;;;;;;;;;;;;;;;;;4899974;29;19916;-84
2022/10/08 05:01:19;;;;;;;;;;;;;;;;;;4900014;29;19919;-84
2022/10/08 05:03:44;;;;;;;;;;;;;;;;;;4898098;29;19947;-83
2022/10/08 05:06:10;;;;;;;;;;;;;;;;;;4883386;29;19919;-84
2022/10/08 05:08:35;;;;;;;;;;;;;;;;;;4900004;29;20388;-84
2022/10/08 05:11:01;;;;;;;;;;;;;;;;;;4898965;29;19974;-82
2022/10/08 05:13:26;;;;;;;;;;;;;;;;;;4897516;29;19911;-87
2022/10/08 05:15:51;;;;;;;;;;;;;;;;;;4898781;29;19916;-87
2022/10/08 05:18:17;;;;;;;;;;;;;;;;;;4899825;29;20340;-81
2022/10/08 05:20:42;;;;;;;;;;;;;;;;;;4882855;29;19916;-81
2022/10/08 05:23:08;;;;;;;;;;;;;;;;;;4898645;29;19919;-83
2022/10/08 05:25:33;;;;;;;;;;;;;;;;;;4899735;29;19924;-84
2022/10/08 05:27:58;;;;;;;;;;;;;;;;;;4898987;29;19919;-83
2022/10/08 05:30:24;;;;;;;;;;;;;;;;;;4882339;29;19919;-84
2022/10/08 05:32:49;;;;;;;;;;;;;;;;;;4882609;29;20035;-85
2022/10/08 05:35:14;;;;;;;;;;;;;;;;;;4882807;29;19967;-83
2022/10/08 05:37:40;;;;;;;;;;;;;;;;;;4882966;29;20414;-84
2022/10/08 05:40:05;;;;;;;;;;;;;;;;;;4898138;29;20375;-83
2022/10/08 05:42:30;;;;;;;;;;;;;;;;;;4898048;29;19967;-81
2022/10/08 05:44:56;;;;;;;;;;;;;;;;;;4897086;29;20459;-83
2022/10/08 05:47:21;;;;;;;;;;;;;;;;;;4898398;29;19916;-84
2022/10/08 05:49:46;;;;;;;;;;;;;;;;;;4897098;29;19919;-84
2022/10/08 05:52:12;;;;;;;;;;;;;;;;;;4899277;29;19982;-81
2022/10/08 05:54:37;;;;;;;;;;;;;;;;;;4898894;29;20455;-83
2022/10/08 05:57:03;;;;;;;;;;;;;;;;;;4897992;29;19919;-84
2022/10/08 05:59:28;;;;;;;;;;;;;;;;;;4899286;29;19926;-84
2022/10/08 06:01:53;;;;;;;;;;;;;;;;;;4900042;29;19971;-82
2022/10/08 06:04:19;;;;;;;;;;;;;;;;;;4896834;29;20628;-84
2022/10/08 06:06:44;;;;;;;;;;;;;;;;;;4897948;29;19916;-83
2022/10/08 06:09:09;;;;;;;;;;;;;;;;;;4897855;29;19916;-85
2022/10/08 06:11:35;;;;;;;;;;;;;;;;;;4898915;29;19960;-85
2022/10/08 06:14:00;;;;;;;;;;;;;;;;;;4898740;29;20268;-84
2022/10/08 06:16:26;;;;;;;;;;;;;;;;;;4900503;29;19916;-83
2022/10/08 06:18:51;;;;;;;;;;;;;;;;;;4902976;29;20159;-84
2022/10/08 06:21:16;;;;;;;;;;;;;;;;;;4898819;29;19920;-83
2022/10/08 06:23:42;;;;;;;;;;;;;;;;;;4898324;29;19922;-83
2022/10/08 06:26:07;;;;;;;;;;;;;;;;;;4882137;29;20336;-83
2022/10/08 06:28:33;;;;;;;;;;;;;;;;;;4898626;29;19938;-84
2022/10/08 06:30:58;;;;;;;;;;;;;;;;;;4881786;29;19923;-84
2022/10/08 06:33:23;;;;;;;;;;;;;;;;;;4881712;29;20371;-84
2022/10/08 06:35:49;;;;;;;;;;;;;;;;;;4897259;29;20463;-83
2022/10/08 06:38:14;;;;;;;;;;;;;;;;;;4897494;29;20014;-84
2022/10/08 06:40:40;;;;;;;;;;;;;;;;;;4895946;29;19951;-85
2022/10/08 06:43:06;;;;;;;;;;;;;;;;;;4896858;29;19915;-85
2022/10/08 06:45:34;;;;;;;;;;;;;;;;;;4897215;29;19916;-81
2022/10/08 06:47:59;;;;;;;;;;;;;;;;;;4896652;29;19919;-81
2022/10/08 06:50:25;;;;;;;;;;;;;;;;;;4896981;29;20311;-81
2022/10/08 06:52:50;;;;;;;;;;;;;;;;;;4897848;29;20010;-80
2022/10/08 06:55:15;;;;;;;;;;;;;;;;;;4896032;29;19990;-81
2022/10/08 06:57:41;;;;;;;;;;;;;;;;;;4897514;29;19922;-80
2022/10/08 07:00:06;;;;;;;;;;;;;;;;;;4881373;29;19938;-82
2022/10/08 07:02:32;;;;;;;;;;;;;;;;;;4896255;29;19919;-84
2022/10/08 07:04:57;;;;;;;;;;;;;;;;;;4880869;29;19976;-86
2022/10/08 07:07:22;;;;;;;;;;;;;;;;;;4897138;29;19944;-84
2022/10/08 07:09:48;;;;;;;;;;;;;;;;;;4896590;29;20402;-85
2022/10/08 07:12:13;;;;;;;;;;;;;;;;;;4895705;29;19926;-86
2022/10/08 07:14:39;;;;;;;;;;;;;;;;;;4896877;29;20423;-85
2022/10/08 07:17:04;;;;;;;;;;;;;;;;;;4898617;29;19921;-83
2022/10/08 07:19:30;;;;;;;;;;;;;;;;;;4903771;29;20011;-85
2022/10/08 07:21:55;;;;;;;;;;;;;;;;;;4900324;29;19922;-82
2022/10/08 07:24:20;;;;;;;;;;;;;;;;;;4896299;29;20379;-82
2022/10/08 07:26:46;;;;;;;;;;;;;;;;;;4896641;29;19923;-82
2022/10/08 07:29:11;;;;;;;;;;;;;;;;;;4896725;29;20458;-83
2022/10/08 07:31:37;;;;;;;;;;;;;;;;;;4898814;29;19926;-84
2022/10/08 07:34:02;;;;;;;;;;;;;;;;;;4880267;29;19942;-83
2022/10/08 07:36:27;;;;;;;;;;;;;;;;;;4896387;29;19923;-84
2022/10/08 07:38:53;;;;;;;;;;;;;;;;;;4897280;29;19919;-84
2022/10/08 07:41:18;;;;;;;;;;;;;;;;;;4896170;29;20359;-82
2022/10/08 07:43:43;;;;;;;;;;;;;;;;;;4895924;29;20458;-84
2022/10/08 07:46:09;;;;;;;;;;;;;;;;;;4896154;29;20344;-85
2022/10/08 07:48:37;;;;;;;;;;;;;;;;;;4896633;29;19915;-84
2022/10/08 07:51:03;;;;;;;;;;;;;;;;;;4896971;29;19919;-85
2022/10/08 07:53:28;;;;;;;;;;;;;;;;;;4896036;29;19915;-85
2022/10/08 07:55:54;;;;;;;;;;;;;;;;;;4896168;29;19922;-86
2022/10/08 07:58:19;;;;;;;;;;;;;;;;;;4880288;29;19927;-85
2022/10/08 08:00:44;;;;;;;;;;;;;;;;;;4896081;29;19916;-84
2022/10/08 08:03:10;;;;;;;;;;;;;;;;;;4895408;29;20325;-81
2022/10/08 08:05:35;;;;;;;;;;;;;;;;;;4879628;29;19923;-84
2022/10/08 08:08:00;;;;;;;;;;;;;;;;;;4896037;29;20010;-84
2022/10/08 08:10:26;;;;;;;;;;;;;;;;;;4897198;29;20437;-85
2022/10/08 08:12:51;;;;;;;;;;;;;;;;;;4896091;29;19938;-85
2022/10/08 08:15:16;;;;;;;;;;;;;;;;;;4900459;29;19916;-84
2022/10/08 08:17:42;;;;;;;;;;;;;;;;;;4889919;29;20409;-83
2022/10/08 08:20:07;;;;;;;;;;;;;;;;;;4911942;29;19922;-82
2022/10/08 08:22:33;;;;;;;;;;;;;;;;;;4904110;29;20241;-84
2022/10/08 08:24:58;;;;;;;;;;;;;;;;;;4903923;29;19972;-82
2022/10/08 08:27:23;;;;;;;;;;;;;;;;;;4901359;29;19915;-83
2022/10/08 08:29:49;;;;;;;;;;;;;;;;;;4900563;29;20386;-84
2022/10/08 08:32:14;;;;;;;;;;;;;;;;;;4899964;29;20491;-84
2022/10/08 08:34:40;;;;;;;;;;;;;;;;;;4900565;29;20344;-84
2022/10/08 08:37:05;;;;;;;;;;;;;;;;;;4899297;29;19923;-88
2022/10/08 08:39:32;;;;;;;;;;;;;;;;;;4898485;29;19922;-81
2022/10/08 08:41:59;;;;;;;;;;;;;;;;;;4899955;29;19963;-84
2022/10/08 08:44:24;;;;;;;;;;;;;;;;;;4900087;29;19922;-83
2022/10/08 08:46:50;;;;;;;;;;;;;;;;;;4897762;29;19990;-84
2022/10/08 08:49:15;;;;;;;;;;;;;;;;;;4894948;29;19919;-85
2022/10/08 08:51:40;;;;;;;;;;;;;;;;;;4871817;29;20452;-83
2022/10/08 08:54:06;;;;;;;;;;;;;;;;;;4872472;29;20284;-84
2022/10/08 08:56:31;;;;;;;;;;;;;;;;;;4880657;29;20446;-85
2022/10/08 08:58:57;;;;;;;;;;;;;;;;;;4881497;29;19972;-83
2022/10/08 09:01:22;;;;;;;;;;;;;;;;;;4880109;29;19974;-84
2022/10/08 09:03:48;;;;;;;;;;;;;;;;;;4880575;29;19920;-85
2022/10/08 09:06:13;;;;;;;;;;;;;;;;;;4881615;29;19923;-82
2022/10/08 09:08:39;;;;;;;;;;;;;;;;;;4881540;29;20344;-85
2022/10/08 09:11:04;;;;;;;;;;;;;;;;;;4886659;29;20306;-86
2022/10/08 09:13:30;;;;;;;;;;;;;;;;;;4883857;29;19922;-86
2022/10/08 09:15:55;;;;;;;;;;;;;;;;;;4898842;29;20380;-86
2022/10/08 09:18:20;;;;;;;;;;;;;;;;;;4882913;29;19915;-82
2022/10/08 09:20:46;;;;;;;;;;;;;;;;;;4899989;29;19923;-84
2022/10/08 09:23:12;;;;;;;;;;;;;;;;;;4898626;29;20299;-84
2022/10/08 09:25:38;;;;;;;;;;;;;;;;;;4899926;29;19964;-84
2022/10/08 09:28:03;;;;;;;;;;;;;;;;;;4882510;29;20328;-84
2022/10/08 09:30:29;;;;;;;;;;;;;;;;;;4898666;29;20298;-84
2022/10/08 09:32:54;;;;;;;;;;;;;;;;;;4899096;29;19916;-94
2022/10/08 09:35:19;;;;;;;;;;;;;;;;;;4885777;29;19915;-86
2022/10/08 09:37:45;;;;;;;;;;;;;;;;;;4899992;29;20292;-82
2022/10/08 09:40:10;;;;;;;;;;;;;;;;;;4899335;29;19922;-84
2022/10/08 09:42:36;;;;;;;;;;;;;;;;;;4899712;29;19947;-84
2022/10/08 09:45:02;;;;;;;;;;;;;;;;;;4898717;29;20370;-83
2022/10/08 09:47:32;;;;;;;;;;;;;;;;;;4898981;29;19915;-86
2022/10/08 09:49:57;;;;;;;;;;;;;;;;;;4882853;29;19922;-86
2022/10/08 09:52:24;;;;;;;;;;;;;;;;;;4882800;29;20332;-86
2022/10/08 09:54:50;;;;;;;;;;;;;;;;;;4898757;29;19916;-87
2022/10/08 09:57:15;;;;;;;;;;;;;;;;;;4900387;29;20347;-89
2022/10/08 09:59:41;;;;;;;;;;;;;;;;;;4900251;29;20272;-87
2022/10/08 10:02:08;;;;;;;;;;;;;;;;;;4898852;29;19982;-85
2022/10/08 10:04:34;;;;;;;;;;;;;;;;;;4908178;29;19922;-84
2022/10/08 10:06:59;;;;;;;;;;;;;;;;;;4903947;29;20014;-83
2022/10/08 10:09:25;;;;;;;;;;;;;;;;;;4886726;29;20391;-82
2022/10/08 10:11:51;;;;;;;;;;;;;;;;;;4902539;29;19923;-85
2022/10/08 10:14:16;;;;;;;;;;;;;;;;;;4888445;29;20211;-84
2022/10/08 10:16:41;;;;;;;;;;;;;;;;;;4906609;29;19919;-85
2022/10/08 10:19:08;;;;;;;;;;;;;;;;;;4904353;29;20340;-84
2022/10/08 10:21:33;;;;;;;;;;;;;;;;;;4905220;29;19915;-85
2022/10/08 10:23:59;;;;;;;;;;;;;;;;;;4902114;29;19939;-84
2022/10/08 10:26:24;;;;;;;;;;;;;;;;;;4908965;29;19915;-84
2022/10/08 10:28:50;;;;;;;;;;;;;;;;;;4911120;29;19959;-85
2022/10/08 10:31:15;;;;;;;;;;;;;;;;;;4908328;29;19959;-85
2022/10/08 10:33:41;;;;;;;;;;;;;;;;;;4902685;29;20276;-85
2022/10/08 10:36:06;;;;;;;;;;;;;;;;;;4897107;29;19915;-85
2022/10/08 10:38:31;;;;;;;;;;;;;;;;;;4898573;29;20402;-84
2022/10/08 10:40:57;;;;;;;;;;;;;;;;;;4898911;29;19915;-84
2022/10/08 10:43:22;;;;;;;;;;;;;;;;;;4896895;29;20002;-85
2022/10/08 10:45:47;;;;;;;;;;;;;;;;;;4898467;29;19945;-85
2022/10/08 10:48:13;;;;;;;;;;;;;;;;;;4897352;29;19916;-84
2022/10/08 10:50:39;;;;;;;;;;;;;;;;;;4897215;29;19995;-84
2022/10/08 10:53:04;;;;;;;;;;;;;;;;;;4892560;29;19915;-84
2022/10/08 10:55:29;;;;;;;;;;;;;;;;;;4880696;29;19931;-84
2022/10/08 10:57:55;;;;;;;;;;;;;;;;;;4892821;29;20387;-84
2022/10/08 11:00:20;;;;;;;;;;;;;;;;;;4878595;29;20020;-84
2022/10/08 11:02:46;;;;;;;;;;;;;;;;;;4890929;29;20407;-85
2022/10/08 11:05:11;;;;;;;;;;;;;;;;;;4877670;29;19916;-82
2022/10/08 11:07:40;;;;;;;;;;;;;;;;;;4879228;29;19948;-81
2022/10/08 11:10:07;;;;;;;;;;;;;;;;;;4897473;29;19916;-81
2022/10/08 11:12:33;;;;;;;;;;;;;;;;;;4878181;29;19912;-82
2022/10/08 11:14:58;;;;;;;;;;;;;;;;;;4893176;29;20455;-79
2022/10/08 11:17:24;;;;;;;;;;;;;;;;;;4895986;29;20440;-88
2022/10/08 11:19:49;;;;;;;;;;;;;;;;;;4893039;29;20297;-78
2022/10/08 11:22:15;;;;;;;;;;;;;;;;;;4895393;29;19923;-79
2022/10/08 11:24:40;;;;;;;;;;;;;;;;;;4890412;29;19921;-78
2022/10/08 11:27:05;;;;;;;;;;;;;;;;;;4896922;29;20295;-77
2022/10/08 11:29:31;;;;;;;;;;;;;;;;;;4896243;29;19923;-78
2022/10/08 11:31:56;;;;;;;;;;;;;;;;;;4894453;29;20303;-77
2022/10/08 11:34:22;;;;;;;;;;;;;;;;;;4894252;29;20006;-84
2022/10/08 11:36:47;;;;;;;;;;;;;;;;;;4879150;29;19975;-84
2022/10/08 11:39:13;;;;;;;;;;;;;;;;;;4897304;29;19983;-83
2022/10/08 11:41:41;;;;;;;;;;;;;;;;;;4895567;29;19922;-84
2022/10/08 11:44:09;;;;;;;;;;;;;;;;;;4897480;29;19918;-86
2022/10/08 11:46:35;;;;;;;;;;;;;;;;;;4896984;29;19915;-85
2022/10/08 11:49:01;;;;;;;;;;;;;;;;;;4895445;29;19967;-86
2022/10/08 11:51:26;;;;;;;;;;;;;;;;;;4882964;29;19987;-85
2022/10/08 11:53:51;;;;;;;;;;;;;;;;;;4900686;29;19931;-86
2022/10/08 11:56:17;;;;;;;;;;;;;;;;;;4901569;29;19922;-86
2022/10/08 11:58:42;;;;;;;;;;;;;;;;;;4882332;29;19920;-85
2022/10/08 12:01:08;;;;;;;;;;;;;;;;;;4900674;29;19924;-86
2022/10/08 12:03:33;;;;;;;;;;;;;;;;;;4880001;29;20392;-84
2022/10/08 12:05:59;;;;;;;;;;;;;;;;;;4880905;29;19920;-85
2022/10/08 12:08:24;;;;;;;;;;;;;;;;;;4897801;29;20010;-86
2022/10/08 12:10:50;;;;;;;;;;;;;;;;;;4897924;29;20335;-86
2022/10/08 12:13:16;;;;;;;;;;;;;;;;;;4898173;29;19974;-86
2022/10/08 12:15:43;;;;;;;;;;;;;;;;;;4896657;29;19916;-86
2022/10/08 12:18:08;;;;;;;;;;;;;;;;;;4903603;29;19922;-86
2022/10/08 12:20:33;;;;;;;;;;;;;;;;;;4901441;29;19915;-85
2022/10/08 12:22:59;;;;;;;;;;;;;;;;;;4881772;29;19940;-85
2022/10/08 12:25:24;;;;;;;;;;;;;;;;;;4899048;29;19939;-85
2022/10/08 12:27:50;;;;;;;;;;;;;;;;;;4898520;29;19923;-92
2022/10/08 12:30:18;;;;;;;;;;;;;;;;;;4884428;29;19919;-88
2022/10/08 12:32:43;;;;;;;;;;;;;;;;;;4898329;29;19922;-88
2022/10/08 12:35:09;;;;;;;;;;;;;;;;;;4900850;29;19916;-89
2022/10/08 12:37:34;;;;;;;;;;;;;;;;;;4886220;29;19915;-87
2022/10/08 12:39:59;;;;;;;;;;;;;;;;;;4880714;29;19935;-88
2022/10/08 12:42:25;;;;;;;;;;;;;;;;;;4896070;29;20394;-87
2022/10/08 12:44:50;;;;;;;;;;;;;;;;;;4880817;29;19919;-88
2022/10/08 12:47:16;;;;;;;;;;;;;;;;;;4897246;29;20331;-86
2022/10/08 12:49:41;;;;;;;;;;;;;;;;;;4898512;29;19958;-86
2022/10/08 12:52:09;;;;;;;;;;;;;;;;;;4898566;29;19925;-89
2022/10/08 12:54:34;;;;;;;;;;;;;;;;;;4880858;29;19922;-79
2022/10/08 12:56:59;;;;;;;;;;;;;;;;;;4883864;29;20383;-78
2022/10/08 12:59:25;;;;;;;;;;;;;;;;;;4899008;29;20328;-89
2022/10/08 13:01:52;;;;;;;;;;;;;;;;;;4887373;29;22398;-87
2022/10/08 13:04:18;;;;;;;;;;;;;;;;;;4886358;29;20380;-89
2022/10/08 13:06:43;;;;;;;;;;;;;;;;;;4884744;29;19938;-88
2022/10/08 13:09:09;;;;;;;;;;;;;;;;;;4890242;29;19915;-88
2022/10/08 13:11:35;;;;;;;;;;;;;;;;;;4885549;29;20285;-88
2022/10/08 13:14:03;;;;;;;;;;;;;;;;;;4893116;29;19911;-89
2022/10/08 13:16:29;;;;;;;;;;;;;;;;;;4901608;29;19920;-88
2022/10/08 13:18:56;;;;;;;;;;;;;;;;;;4885241;29;20011;-90
2022/10/08 13:21:24;;;;;;;;;;;;;;;;;;4884671;29;19987;-89
2022/10/08 13:23:49;;;;;;;;;;;;;;;;;;4884551;29;20368;-89
2022/10/08 13:26:15;;;;;;;;;;;;;;;;;;4885277;29;20384;-89
2022/10/08 13:28:40;;;;;;;;;;;;;;;;;;4900410;29;20333;-88
2022/10/08 13:31:05;;;;;;;;;;;;;;;;;;4890655;29;19919;-91
2022/10/08 13:33:31;;;;;;;;;;;;;;;;;;4884535;29;19967;-90
2022/10/08 13:35:56;;;;;;;;;;;;;;;;;;4884712;29;19923;-89
2022/10/08 13:38:22;;;;;;;;;;;;;;;;;;4885177;29;19938;-89
2022/10/08 13:40:47;;;;;;;;;;;;;;;;;;4885146;29;20343;-91
2022/10/08 13:43:12;;;;;;;;;;;;;;;;;;4885073;29;19983;-91
2022/10/08 13:45:38;;;;;;;;;;;;;;;;;;4885048;29;19941;-91
2022/10/08 13:48:04;;;;;;;;;;;;;;;;;;4883887;29;20383;-88
2022/10/08 13:50:29;;;;;;;;;;;;;;;;;;4885815;29;19927;-84
2022/10/08 13:52:55;;;;;;;;;;;;;;;;;;4901918;29;20359;-84
2022/10/08 13:55:21;;;;;;;;;;;;;;;;;;4900318;29;19915;-79
2022/10/08 13:57:46;;;;;;;;;;;;;;;;;;4883186;29;20312;-79
2022/10/08 14:00:12;;;;;;;;;;;;;;;;;;4900237;29;20455;-76
2022/10/08 14:02:37;;;;;;;;;;;;;;;;;;4884632;29;19958;-77
2022/10/08 14:05:03;;;;;;;;;;;;;;;;;;4884362;29;19915;-76
2022/10/08 14:07:28;;;;;;;;;;;;;;;;;;4901796;29;19926;-78
2022/10/08 14:09:54;;;;;;;;;;;;;;;;;;4899927;29;19919;-77
2022/10/08 14:12:19;;;;;;;;;;;;;;;;;;4896733;29;19919;-77
2022/10/08 14:14:45;;;;;;;;;;;;;;;;;;4898175;29;19916;-75
2022/10/08 14:17:10;;;;;;;;;;;;;;;;;;4882459;29;20394;-75
2022/10/08 14:19:36;;;;;;;;;;;;;;;;;;4898904;29;20395;-80
2022/10/08 14:22:01;;;;;;;;;;;;;;;;;;4899220;29;20144;-78
2022/10/08 14:24:27;;;;;;;;;;;;;;;;;;4898443;29;20400;-78
2022/10/08 14:26:52;;;;;;;;;;;;;;;;;;4881847;29;20034;-77
2022/10/08 14:29:17;;;;;;;;;;;;;;;;;;4898541;29;19931;-78
2022/10/08 14:31:43;;;;;;;;;;;;;;;;;;4897887;29;20032;-78
2022/10/08 14:34:08;;;;;;;;;;;;;;;;;;4896911;29;19955;-78
2022/10/08 14:36:34;;;;;;;;;;;;;;;;;;4898095;29;19915;-76
2022/10/08 14:38:59;;;;;;;;;;;;;;;;;;4896820;29;20447;-77
2022/10/08 14:41:25;;;;;;;;;;;;;;;;;;4897945;29;19916;-77
2022/10/08 14:43:50;;;;;;;;;;;;;;;;;;4880709;29;19916;-77
2022/10/08 14:46:15;;;;;;;;;;;;;;;;;;4899591;29;20014;-90
2022/10/08 14:48:41;;;;;;;;;;;;;;;;;;4883096;29;19921;-86
2022/10/08 14:51:06;;;;;;;;;;;;;;;;;;4882203;29;20410;-77
2022/10/08 14:53:32;;;;;;;;;;;;;;;;;;4897426;29;20367;-80
2022/10/08 14:55:57;;;;;;;;;;;;;;;;;;4896635;29;20050;-80
2022/10/08 14:58:22;;;;;;;;;;;;;;;;;;4897844;29;20003;-79
2022/10/08 15:00:49;;;;;;;;;;;;;;;;;;4897575;29;19924;-80
2022/10/08 15:03:14;;;;;;;;;;;;;;;;;;4896327;29;19962;-80
2022/10/08 15:05:39;;;;;;;;;;;;;;;;;;4896875;29;19943;-80
2022/10/08 15:08:05;;;;;;;;;;;;;;;;;;4896431;29;19922;-79
2022/10/08 15:10:30;;;;;;;;;;;;;;;;;;4896635;29;19915;-80
2022/10/08 15:12:55;;;;;;;;;;;;;;;;;;4897529;29;19981;-81
2022/10/08 15:15:21;;;;;;;;;;;;;;;;;;4897742;29;19918;-80
2022/10/08 15:17:46;;;;;;;;;;;;;;;;;;4881429;29;19938;-80
2022/10/08 15:20:12;;;;;;;;;;;;;;;;;;4896647;29;19919;-81
2022/10/08 15:22:37;;;;;;;;;;;;;;;;;;4901874;29;19959;-81
2022/10/08 15:25:03;;;;;;;;;;;;;;;;;;4898918;29;19915;-81
2022/10/08 15:27:28;;;;;;;;;;;;;;;;;;4896594;29;20164;-81
2022/10/08 15:29:54;;;;;;;;;;;;;;;;;;4881073;29;19938;-81
2022/10/08 15:32:19;;;;;;;;;;;;;;;;;;4896905;29;19919;-80
2022/10/08 15:34:44;;;;;;;;;;;;;;;;;;4880567;29;19931;-80
2022/10/08 15:37:10;;;;;;;;;;;;;;;;;;4897366;29;19933;-80
2022/10/08 15:39:35;;;;;;;;;;;;;;;;;;4880386;29;20363;-80
2022/10/08 15:42:01;;;;;;;;;;;;;;;;;;4895716;29;19916;-80
2022/10/08 15:44:26;;;;;;;;;;;;;;;;;;4896741;29;19917;-80
2022/10/08 15:46:52;;;;;;;;;;;;;;;;;;4897199;29;19920;-81
2022/10/08 15:49:17;;;;;;;;;;;;;;;;;;4897381;29;19915;-80
2022/10/08 15:51:42;;;;;;;;;;;;;;;;;;4895837;29;20455;-80
2022/10/08 15:54:08;;;;;;;;;;;;;;;;;;4895877;29;19966;-82
2022/10/08 15:56:33;;;;;;;;;;;;;;;;;;4880499;29;20382;-81
2022/10/08 15:58:59;;;;;;;;;;;;;;;;;;4897442;29;20375;-82
2022/10/08 16:01:24;;;;;;;;;;;;;;;;;;4895566;29;19920;-80
2022/10/08 16:03:49;;;;;;;;;;;;;;;;;;4896838;29;19958;-83
2022/10/08 16:06:15;;;;;;;;;;;;;;;;;;4880441;29;19915;-81
2022/10/08 16:08:40;;;;;;;;;;;;;;;;;;4897071;29;19916;-80
2022/10/08 16:11:06;;;;;;;;;;;;;;;;;;4897159;29;19919;-81
2022/10/08 16:13:32;;;;;;;;;;;;;;;;;;4895606;29;19916;-81
2022/10/08 16:15:57;;;;;;;;;;;;;;;;;;4897157;29;19923;-81
2022/10/08 16:18:23;;;;;;;;;;;;;;;;;;4896348;29;19916;-80
2022/10/08 16:20:48;;;;;;;;;;;;;;;;;;4898287;29;19920;-81
2022/10/08 16:23:14;;;;;;;;;;;;;;;;;;4901293;29;20387;-80
2022/10/08 16:25:42;;;;;;;;;;;;;;;;;;4901182;29;20379;-81
2022/10/08 16:28:08;;;;;;;;;;;;;;;;;;4897639;29;19967;-80
2022/10/08 16:30:33;;;;;;;;;;;;;;;;;;4896803;29;19915;-82
2022/10/08 16:32:59;;;;;;;;;;;;;;;;;;4879918;29;19974;-82
2022/10/08 16:35:24;;;;;;;;;;;;;;;;;;4882990;29;19915;-81
2022/10/08 16:37:51;;;;;;;;;;;;;;;;;;4883705;29;20295;-81
2022/10/08 16:40:16;;;;;;;;;;;;;;;;;;4900119;29;19920;-81